Puerto Madryn, Argentina
Current Conditions -  °F | °C
As of 9:00 AM on Tuesday 21 Oct 2014 (Local Time) from SAVC Reporting Station
Clear Clear  
Wind Chill: 16°   Ceiling: Unl
Heat Index: 16°   Visibility: 6mi
Dew Point:   Wind: 7mph
Humidity: 52%   Direction: 270°W
Pressure: 29.65"   Gusts: NA
Location:  42.77°S, 65.05°W
Report Text: SAVC 211200Z 27006KT CAVOK 16/06 Q1004
Loading
Personal Weather Stations






























Interactive Weather Map
Tropical Storm Tracking
New forecast layout! Learn more

10-Day Weather Forecast

Advertisements
Track Severe Weather on mobile